Time;durP1;ratioP1;P1;durP2;ratioP2;P2;SDS_P1;SDS_P2;PMS_P1;PMS_P2;Temp;Humidity;BMP_temperature;BMP_pressure;BME280_temperature;BME280_humidity;BME280_pressure;Samples;Min_cycle;Max_cycle;Signal;HPM_P1;HPM_P2
2022/12/05 00:01:18;;;;;;;1999.90;999.90;;;5.20;99.90;;;;;;5003938;28;20045;-70
2022/12/05 00:03:45;;;;;;;1999.90;999.90;;;5.10;99.90;;;;;;4989870;28;20055;-70
2022/12/05 00:06:11;;;;;;;1999.90;999.90;;;5.10;99.90;;;;;;5006292;28;20407;-70
2022/12/05 00:08:37;;;;;;;1999.90;999.90;;;5.10;99.90;;;;;;5004795;28;20042;-71
2022/12/05 00:11:03;;;;;;;1999.90;999.90;;;5.10;99.90;;;;;;5020857;28;20500;-71
2022/12/05 00:13:28;;;;;;;1999.90;999.90;;;5.10;99.90;;;;;;5006438;28;20049;-71
2022/12/05 00:15:54;;;;;;;1999.90;999.90;;;5.10;99.90;;;;;;5007420;28;20033;-71
2022/12/05 00:18:19;;;;;;;1999.90;999.90;;;5.10;99.90;;;;;;5006140;28;20034;-71
2022/12/05 00:20:46;;;;;;;1999.90;999.90;;;5.10;99.90;;;;;;5003827;28;20188;-71
2022/12/05 00:23:12;;;;;;;1999.90;999.90;;;5.20;99.90;;;;;;4985851;28;20065;-71
2022/12/05 00:25:38;;;;;;;1999.90;999.90;;;5.20;99.90;;;;;;5020358;28;20037;-70
2022/12/05 00:28:03;;;;;;;1999.90;999.90;;;5.20;99.90;;;;;;4989491;28;20129;-71
2022/12/05 00:30:29;;;;;;;1999.90;999.90;;;5.20;99.90;;;;;;5006030;28;20045;-71
2022/12/05 00:32:56;;;;;;;1999.90;999.90;;;5.10;99.90;;;;;;5005780;28;20083;-71
2022/12/05 00:35:21;;;;;;;1999.90;999.90;;;5.20;99.90;;;;;;5005660;28;20050;-71
2022/12/05 00:37:47;;;;;;;1999.90;999.90;;;5.20;99.90;;;;;;4989420;28;20478;-71
2022/12/05 00:40:13;;;;;;;1999.90;999.90;;;5.20;99.90;;;;;;4987652;28;20050;-71
2022/12/05 00:42:38;;;;;;;1999.90;999.90;;;5.20;99.90;;;;;;5006542;28;20048;-70
2022/12/05 00:45:04;;;;;;;1999.90;999.90;;;5.20;99.90;;;;;;4988977;28;20054;-71
2022/12/05 00:47:33;;;;;;;1999.90;999.90;;;5.30;99.90;;;;;;4989797;28;20077;-70
2022/12/05 00:49:58;;;;;;;1999.90;999.90;;;5.30;99.90;;;;;;5004423;28;20041;-70
2022/12/05 00:52:24;;;;;;;1999.90;999.90;;;5.40;99.90;;;;;;5006375;28;20042;-71
2022/12/05 00:54:49;;;;;;;1999.90;999.90;;;5.40;99.90;;;;;;5008997;28;20049;-71
2022/12/05 00:57:15;;;;;;;1999.90;999.90;;;5.40;99.90;;;;;;4995655;28;20152;-71
2022/12/05 00:59:40;;;;;;;1999.90;999.90;;;5.40;99.90;;;;;;5009312;28;20077;-71
2022/12/05 01:02:06;;;;;;;1999.90;999.90;;;5.40;99.90;;;;;;5013459;28;20560;-70
2022/12/05 01:04:32;;;;;;;1999.90;999.90;;;5.40;99.90;;;;;;5016530;28;20038;-70
2022/12/05 01:06:58;;;;;;;1999.90;999.90;;;5.40;99.90;;;;;;5018071;28;20527;-71
2022/12/05 01:09:24;;;;;;;1999.90;999.90;;;5.50;99.90;;;;;;5012281;28;20037;-71
2022/12/05 01:11:50;;;;;;;1999.90;999.90;;;5.40;99.90;;;;;;4992951;28;20044;-71
2022/12/05 01:14:19;;;;;;;1999.90;999.90;;;5.40;99.90;;;;;;5009164;28;20046;-71
2022/12/05 01:16:47;;;;;;;1999.90;999.90;;;5.40;99.90;;;;;;4994536;28;20374;-71
2022/12/05 01:19:17;;;;;;;1999.90;999.90;;;5.40;99.90;;;;;;5017194;28;20056;-70
2022/12/05 01:21:43;;;;;;;1999.90;999.90;;;5.40;99.90;;;;;;5014716;28;20037;-70
2022/12/05 01:24:10;;;;;;;1999.90;999.90;;;5.50;99.90;;;;;;5010781;28;20528;-71
2022/12/05 01:26:36;;;;;;;1999.90;999.90;;;5.50;99.90;;;;;;4993600;28;21753;-71
2022/12/05 01:29:03;;;;;;;1999.90;999.90;;;5.50;99.90;;;;;;5010929;28;20187;-71
2022/12/05 01:31:31;;;;;;;1999.90;999.90;;;5.50;99.90;;;;;;5005342;28;20410;-71
2022/12/05 01:33:59;;;;;;;1999.90;999.90;;;5.50;99.90;;;;;;5004147;28;20402;-71
2022/12/05 01:36:26;;;;;;;1999.90;999.90;;;5.50;99.90;;;;;;4993343;28;20033;-71
2022/12/05 01:38:52;;;;;;;1999.90;999.90;;;5.50;99.90;;;;;;5007504;28;20091;-70
2022/12/05 01:41:28;;;;;;;1999.90;999.90;;;5.60;99.90;;;;;;5006568;28;20157;-71
2022/12/05 01:44:06;;;;;;;1999.90;999.90;;;5.60;99.90;;;;;;5011466;28;20073;-71
2022/12/05 01:46:34;;;;;;;1999.90;999.90;;;5.60;99.90;;;;;;5011389;28;20048;-71
2022/12/05 01:49:14;;;;;;;1999.90;999.90;;;5.60;99.90;;;;;;5006005;28;20208;-71
2022/12/05 01:51:43;;;;;;;1999.90;999.90;;;5.60;99.90;;;;;;5015452;28;20041;-71
2022/12/05 01:54:10;;;;;;;1999.90;999.90;;;5.70;99.90;;;;;;4990365;28;20099;-71
2022/12/05 01:56:36;;;;;;;1999.90;999.90;;;5.70;99.90;;;;;;5002556;28;20413;-70
2022/12/05 01:59:06;;;;;;;1999.90;999.90;;;5.70;99.90;;;;;;4994244;28;20045;-71
2022/12/05 02:01:32;;;;;;;1999.90;999.90;;;5.70;99.90;;;;;;5006756;28;20048;-71
2022/12/05 02:03:58;;;;;;;1999.90;999.90;;;5.80;99.90;;;;;;4996257;28;20038;-71
2022/12/05 02:06:26;;;;;;;1999.90;999.90;;;5.80;99.90;;;;;;5022482;28;20045;-71
2022/12/05 02:08:52;;;;;;;1999.90;999.90;;;5.80;99.90;;;;;;5013948;28;20037;-71
2022/12/05 02:11:18;;;;;;;1999.90;999.90;;;5.80;99.90;;;;;;5011076;28;20038;-70
2022/12/05 02:13:59;;;;;;;1999.90;999.90;;;5.80;99.90;;;;;;5012742;28;20398;-71
2022/12/05 02:16:47;;;;;;;1999.90;999.90;;;5.80;99.90;;;;;;5014174;28;20505;-71
2022/12/05 02:19:34;;;;;;;1999.90;999.90;;;5.80;99.90;;;;;;5007171;28;20040;-71
2022/12/05 02:22:19;;;;;;;1999.90;999.90;;;5.90;99.90;;;;;;5007052;28;20393;-71
2022/12/05 02:25:11;;;;;;;1999.90;999.90;;;5.90;99.90;;;;;;5013565;28;20128;-71
2022/12/05 02:28:18;;;;;;;1999.90;999.90;;;5.90;99.90;;;;;;5010529;28;20052;-71
2022/12/05 02:30:49;;;;;;;1999.90;999.90;;;5.90;99.90;;;;;;5013963;28;20296;-71
2022/12/05 02:33:35;;;;;;;1999.90;999.90;;;5.90;99.90;;;;;;5011353;28;20048;-70
2022/12/05 02:36:30;;;;;;;1999.90;999.90;;;5.90;99.90;;;;;;5007302;28;20041;-70
2022/12/05 02:39:10;;;;;;;1999.90;999.90;;;5.90;99.90;;;;;;5007264;28;20042;-71
2022/12/05 02:41:50;;;;;;;1999.90;999.90;;;5.90;99.90;;;;;;4997054;28;20091;-71
2022/12/05 02:44:32;;;;;;;1999.90;999.90;;;6.00;99.90;;;;;;4989988;28;20198;-71
2022/12/05 02:46:59;;;;;;;1999.90;999.90;;;5.90;99.90;;;;;;5006329;28;20052;-71
2022/12/05 02:49:30;;;;;;;1999.90;999.90;;;5.90;99.90;;;;;;5019218;28;20045;-71
2022/12/05 02:51:58;;;;;;;1999.90;999.90;;;5.90;99.90;;;;;;5017307;28;20383;-71
2022/12/05 02:54:28;;;;;;;1999.90;999.90;;;5.90;99.90;;;;;;5006918;28;20046;-70
2022/12/05 02:56:57;;;;;;;1999.90;999.90;;;5.80;99.90;;;;;;5014577;28;20482;-71
2022/12/05 02:59:23;;;;;;;1999.90;999.90;;;5.80;99.90;;;;;;5012159;28;20045;-71
2022/12/05 03:01:48;;;;;;;1999.90;999.90;;;5.80;99.90;;;;;;5011431;28;20041;-71
2022/12/05 03:04:16;;;;;;;1999.90;999.90;;;5.90;99.90;;;;;;5007220;28;20080;-71
2022/12/05 03:06:50;;;;;;;1999.90;999.90;;;5.80;99.90;;;;;;4991283;28;20501;-71
2022/12/05 03:09:25;;;;;;;1999.90;999.90;;;5.80;99.90;;;;;;5008645;28;20088;-71
2022/12/05 03:12:13;;;;;;;1999.90;999.90;;;5.80;99.90;;;;;;5024267;28;20145;-71
2022/12/05 03:15:11;;;;;;;1999.90;999.90;;;5.80;99.90;;;;;;5024180;28;20037;-71
2022/12/05 03:18:16;;;;;;;1999.90;999.90;;;5.80;99.90;;;;;;4913743;28;20451;-71
2022/12/05 03:20:55;;;;;;;1999.90;999.90;;;5.80;99.90;;;;;;4936360;28;20071;-70
2022/12/05 03:23:28;;;;;;;1999.90;999.90;;;5.90;99.90;;;;;;4928534;28;20513;-71
2022/12/05 03:26:10;;;;;;;1999.90;999.90;;;5.80;99.90;;;;;;4925960;28;20054;-71
2022/12/05 03:28:54;;;;;;;1999.90;999.90;;;5.80;99.90;;;;;;4926754;28;20117;-71
2022/12/05 03:31:30;;;;;;;1999.90;999.90;;;5.80;99.90;;;;;;4928867;28;20051;-71
2022/12/05 03:33:58;;;;;;;1999.90;999.90;;;5.80;99.90;;;;;;4927449;28;20072;-71
2022/12/05 03:36:35;;;;;;;1999.90;999.90;;;5.80;99.90;;;;;;4926464;28;20043;-70
2022/12/05 03:39:06;;;;;;;1999.90;999.90;;;5.80;99.90;;;;;;4911113;28;20047;-71
2022/12/05 03:42:10;;;;;;;1999.90;999.90;;;5.70;99.90;;;;;;4911491;28;21255;-71
2022/12/05 03:44:50;;;;;;;1999.90;999.90;;;5.70;99.90;;;;;;4886271;29;20430;-71
2022/12/05 03:47:46;;;;;;;1999.90;999.90;;;5.70;99.90;;;;;;4883867;29;20060;-71
2022/12/05 03:50:21;;;;;;;1999.90;999.90;;;5.60;99.90;;;;;;4880598;29;20052;-70
2022/12/05 03:53:04;;;;;;;1999.90;999.90;;;5.70;99.90;;;;;;4883742;29;20587;-71
2022/12/05 03:55:34;;;;;;;1999.90;999.90;;;5.70;99.90;;;;;;4944534;28;20407;-71
2022/12/05 03:58:16;;;;;;;1999.90;999.90;;;5.60;99.90;;;;;;4946561;28;20058;-71
2022/12/05 04:00:46;;;;;;;1999.90;999.90;;;5.70;99.90;;;;;;4941203;28;20047;-71
2022/12/05 04:03:39;;;;;;;1999.90;999.90;;;5.70;99.90;;;;;;4948971;28;20183;-71
2022/12/05 04:06:32;;;;;;;1999.90;999.90;;;5.60;99.90;;;;;;4948783;28;20046;-71
2022/12/05 04:09:08;;;;;;;1999.90;999.90;;;5.60;99.90;;;;;;4948355;28;20051;-71
2022/12/05 04:11:39;;;;;;;1999.90;999.90;;;5.60;99.90;;;;;;4949771;28;20044;-71
2022/12/05 04:14:13;;;;;;;1999.90;999.90;;;5.70;99.90;;;;;;4965799;28;20502;-71
2022/12/05 04:17:08;;;;;;;1999.90;999.90;;;5.60;99.90;;;;;;5014259;28;20049;-71
2022/12/05 04:22:38;;;;;;;1999.90;999.90;;;5.60;99.90;;;;;;5027965;28;20034;-70
2022/12/05 04:28:19;;;;;;;1999.90;999.90;;;5.60;99.90;;;;;;5008341;28;20046;-71
2022/12/05 04:31:08;;;;;;;1999.90;999.90;;;5.60;99.90;;;;;;4995919;28;20511;-71
2022/12/05 04:33:53;;;;;;;1999.90;999.90;;;5.60;99.90;;;;;;5001612;28;20452;-71
2022/12/05 04:36:24;;;;;;;1999.90;999.90;;;5.50;99.90;;;;;;5006061;28;20517;-71
2022/12/05 04:39:08;;;;;;;1999.90;999.90;;;5.60;99.90;;;;;;5026769;28;20060;-71
2022/12/05 04:41:47;;;;;;;1999.90;999.90;;;5.60;99.90;;;;;;5027594;28;20493;-71
2022/12/05 04:44:17;;;;;;;1999.90;999.90;;;5.60;99.90;;;;;;5013275;28;20049;-71
2022/12/05 04:46:44;;;;;;;1999.90;999.90;;;5.60;99.90;;;;;;5009139;28;20041;-71
2022/12/05 04:49:19;;;;;;;1999.90;999.90;;;5.60;99.90;;;;;;5007962;28;20366;-71
2022/12/05 04:51:48;;;;;;;1999.90;999.90;;;5.60;99.90;;;;;;5015860;28;20787;-71
2022/12/05 04:54:23;;;;;;;1999.90;999.90;;;5.60;99.90;;;;;;5027278;28;20111;-70
2022/12/05 04:56:53;;;;;;;1999.90;999.90;;;5.70;99.90;;;;;;5027591;28;20521;-71
2022/12/05 04:59:19;;;;;;;1999.90;999.90;;;5.60;99.90;;;;;;5008478;28;20043;-71
2022/12/05 05:01:50;;;;;;;1999.90;999.90;;;5.60;99.90;;;;;;5027437;28;20516;-71
2022/12/05 05:04:24;;;;;;;1999.90;999.90;;;5.70;99.90;;;;;;5010668;28;20048;-71
2022/12/05 05:06:50;;;;;;;1999.90;999.90;;;5.70;99.90;;;;;;4989570;28;20047;-70
2022/12/05 05:09:16;;;;;;;1999.90;999.90;;;5.60;99.90;;;;;;4992202;28;20497;-71
2022/12/05 05:11:41;;;;;;;1999.90;999.90;;;5.70;99.90;;;;;;5016096;28;20091;-71
2022/12/05 05:14:07;;;;;;;1999.90;999.90;;;5.70;99.90;;;;;;5018028;28;20504;-71
2022/12/05 05:16:39;;;;;;;1999.90;999.90;;;5.70;99.90;;;;;;5005343;28;20077;-71
2022/12/05 05:19:06;;;;;;;1999.90;999.90;;;5.60;99.90;;;;;;5023009;28;20033;-71
2022/12/05 05:21:34;;;;;;;1999.90;999.90;;;5.70;99.90;;;;;;4996834;28;20382;-71
2022/12/05 05:24:00;;;;;;;1999.90;999.90;;;5.70;99.90;;;;;;5007758;28;20064;-71
2022/12/05 05:26:28;;;;;;;1999.90;999.90;;;5.70;99.90;;;;;;5010971;28;20034;-71
2022/12/05 05:28:54;;;;;;;1999.90;999.90;;;5.70;99.90;;;;;;4993644;28;20068;-71
2022/12/05 05:31:20;;;;;;;1999.90;999.90;;;5.70;99.90;;;;;;5011119;28;20077;-71
2022/12/05 05:33:54;;;;;;;1999.90;999.90;;;5.70;99.90;;;;;;5007506;28;20149;-71
2022/12/05 05:36:21;;;;;;;1999.90;999.90;;;5.70;99.90;;;;;;5006182;28;20064;-71
2022/12/05 05:38:49;;;;;;;1999.90;999.90;;;5.70;99.90;;;;;;5013718;28;20099;-71
2022/12/05 05:41:18;;;;;;;1999.90;999.90;;;5.70;99.90;;;;;;5007812;28;20042;-71
2022/12/05 05:43:44;;;;;;;1999.90;999.90;;;5.70;99.90;;;;;;5008392;28;20041;-71
2022/12/05 05:46:11;;;;;;;1999.90;999.90;;;5.70;99.90;;;;;;5009573;28;20049;-71
2022/12/05 05:48:37;;;;;;;1999.90;999.90;;;5.70;99.90;;;;;;5014420;28;20045;-71
2022/12/05 05:51:05;;;;;;;1999.90;999.90;;;5.70;99.90;;;;;;5013555;28;20083;-71
2022/12/05 05:53:31;;;;;;;1999.90;999.90;;;5.70;99.90;;;;;;4991620;28;20417;-71
2022/12/05 05:55:56;;;;;;;1999.90;999.90;;;5.70;99.90;;;;;;5013387;28;20058;-71
2022/12/05 05:58:22;;;;;;;1999.90;999.90;;;5.70;99.90;;;;;;4991497;28;20048;-71
2022/12/05 06:00:48;;;;;;;1999.90;999.90;;;5.70;99.90;;;;;;4994405;28;20037;-71
2022/12/05 06:03:13;;;;;;;1999.90;999.90;;;5.70;99.90;;;;;;5012997;28;20037;-71
2022/12/05 06:05:39;;;;;;;1999.90;999.90;;;5.70;99.90;;;;;;5010762;28;20357;-71
2022/12/05 06:08:05;;;;;;;1999.90;999.90;;;5.70;99.90;;;;;;5011081;28;20107;-71
2022/12/05 06:10:30;;;;;;;1999.90;999.90;;;5.80;99.90;;;;;;5015915;28;20859;-71
2022/12/05 06:12:57;;;;;;;1999.90;999.90;;;5.70;99.90;;;;;;5019337;28;20037;-71
2022/12/05 06:15:23;;;;;;;1999.90;999.90;;;5.70;99.90;;;;;;5014720;28;20045;-71
2022/12/05 06:17:48;;;;;;;1999.90;999.90;;;5.70;99.90;;;;;;5009040;28;20033;-71
2022/12/05 06:20:14;;;;;;;1999.90;999.90;;;5.70;99.90;;;;;;4988424;28;20042;-71
2022/12/05 06:22:40;;;;;;;1999.90;999.90;;;5.70;99.90;;;;;;5005232;28;20402;-71
2022/12/05 06:25:07;;;;;;;1999.90;999.90;;;5.70;99.90;;;;;;5006142;28;20045;-71
2022/12/05 06:27:33;;;;;;;1999.90;999.90;;;5.70;99.90;;;;;;5009473;28;20079;-71
2022/12/05 06:29:59;;;;;;;1999.90;999.90;;;5.70;99.90;;;;;;5006530;28;21421;-71
2022/12/05 06:32:26;;;;;;;1999.90;999.90;;;5.70;99.90;;;;;;5007921;28;20128;-71
2022/12/05 06:34:52;;;;;;;1999.90;999.90;;;5.70;99.90;;;;;;5006441;28;20088;-71
2022/12/05 06:37:17;;;;;;;1999.90;999.90;;;5.70;99.90;;;;;;5007416;28;20100;-71
2022/12/05 06:39:43;;;;;;;1999.90;999.90;;;5.70;99.90;;;;;;5005604;28;20037;-71
2022/12/05 06:42:09;;;;;;;1999.90;999.90;;;5.70;99.90;;;;;;5024692;28;20500;-71
2022/12/05 06:44:34;;;;;;;1999.90;999.90;;;5.70;99.90;;;;;;5006144;28;20049;-71
2022/12/05 06:47:00;;;;;;;1999.90;999.90;;;5.70;99.90;;;;;;5011778;28;20045;-71
2022/12/05 06:49:31;;;;;;;1999.90;999.90;;;5.70;99.90;;;;;;5022527;28;20037;-71
2022/12/05 06:51:57;;;;;;;1999.90;999.90;;;5.70;99.90;;;;;;5003733;28;20042;-71
2022/12/05 06:54:23;;;;;;;1999.90;999.90;;;5.70;99.90;;;;;;5031712;28;20052;-71
2022/12/05 06:56:49;;;;;;;1999.90;999.90;;;5.70;99.90;;;;;;4999737;28;20120;-71
2022/12/05 06:59:14;;;;;;;1999.90;999.90;;;5.70;99.90;;;;;;5007475;28;20496;-71
2022/12/05 07:01:45;;;;;;;1999.90;999.90;;;5.80;99.90;;;;;;5011263;28;20041;-71
2022/12/05 07:04:24;;;;;;;1999.90;999.90;;;5.80;99.90;;;;;;5011576;28;20472;-71
2022/12/05 07:06:52;;;;;;;1999.90;999.90;;;5.80;99.90;;;;;;5010776;28;20054;-71
2022/12/05 07:09:20;;;;;;;1999.90;999.90;;;5.70;99.90;;;;;;5007704;28;20138;-71
2022/12/05 07:11:49;;;;;;;1999.90;999.90;;;5.80;99.90;;;;;;5008327;28;20037;-71
2022/12/05 07:14:16;;;;;;;1999.90;999.90;;;5.70;99.90;;;;;;4989950;28;20077;-71
2022/12/05 07:16:42;;;;;;;1999.90;999.90;;;5.70;99.90;;;;;;5015992;28;20037;-71
2022/12/05 07:19:09;;;;;;;1999.90;999.90;;;5.70;99.90;;;;;;5005470;28;20128;-71
2022/12/05 07:21:35;;;;;;;1999.90;999.90;;;5.80;99.90;;;;;;5006511;28;20069;-71
2022/12/05 07:24:00;;;;;;;1999.90;999.90;;;5.80;99.90;;;;;;5007393;28;20950;-71
2022/12/05 07:26:26;;;;;;;1999.90;999.90;;;5.80;99.90;;;;;;5006061;28;20090;-71
2022/12/05 07:28:55;;;;;;;1999.90;999.90;;;5.80;99.90;;;;;;5007732;28;20116;-71
2022/12/05 07:31:22;;;;;;;1999.90;999.90;;;5.80;99.90;;;;;;5007165;28;20038;-71
2022/12/05 07:33:48;;;;;;;1999.90;999.90;;;5.80;99.90;;;;;;5007242;28;20473;-71
2022/12/05 07:36:18;;;;;;;1999.90;999.90;;;5.80;99.90;;;;;;5021170;28;20045;-71
2022/12/05 07:38:44;;;;;;;1999.90;999.90;;;5.90;99.90;;;;;;5010702;28;20281;-71
2022/12/05 07:41:15;;;;;;;1999.90;999.90;;;5.90;99.90;;;;;;5010118;28;20044;-71
2022/12/05 07:43:41;;;;;;;1999.90;999.90;;;5.80;99.90;;;;;;5011363;28;20045;-71
2022/12/05 07:46:08;;;;;;;1999.90;999.90;;;5.80;99.90;;;;;;5003724;28;20398;-71
2022/12/05 07:48:33;;;;;;;1999.90;999.90;;;5.90;99.90;;;;;;5010301;28;20034;-71
2022/12/05 07:51:04;;;;;;;1999.90;999.90;;;5.90;99.90;;;;;;5029018;28;20071;-71
2022/12/05 07:53:31;;;;;;;1999.90;999.90;;;5.90;99.90;;;;;;4992610;28;20140;-71
2022/12/05 07:56:01;;;;;;;1999.90;999.90;;;5.90;99.90;;;;;;5011152;28;20093;-71
2022/12/05 07:58:28;;;;;;;1999.90;999.90;;;5.90;99.90;;;;;;5013026;28;20044;-71
2022/12/05 08:00:55;;;;;;;1999.90;999.90;;;5.90;99.90;;;;;;5011525;28;20444;-71
2022/12/05 08:03:20;;;;;;;1999.90;999.90;;;5.90;99.90;;;;;;5009279;28;20095;-71
2022/12/05 08:05:46;;;;;;;1999.90;999.90;;;5.90;99.90;;;;;;5030659;28;20033;-71
2022/12/05 08:08:12;;;;;;;1999.90;999.90;;;5.90;99.90;;;;;;4995893;28;20033;-71
2022/12/05 08:10:37;;;;;;;1999.90;999.90;;;5.90;99.90;;;;;;5009260;28;20042;-71
2022/12/05 08:13:03;;;;;;;1999.90;999.90;;;6.00;99.90;;;;;;5017159;28;20112;-71
2022/12/05 08:15:29;;;;;;;1999.90;999.90;;;5.90;99.90;;;;;;5008124;28;20044;-71
2022/12/05 08:17:54;;;;;;;1999.90;999.90;;;6.00;99.90;;;;;;5018072;28;20041;-71
2022/12/05 08:20:20;;;;;;;1999.90;999.90;;;6.00;99.90;;;;;;5009622;28;20037;-71
2022/12/05 08:22:46;;;;;;;1999.90;999.90;;;6.00;99.90;;;;;;5027462;28;20474;-71
2022/12/05 08:25:11;;;;;;;1999.90;999.90;;;5.90;99.90;;;;;;5013097;28;20033;-71
2022/12/05 08:27:37;;;;;;;1999.90;999.90;;;6.00;99.90;;;;;;5004150;28;20497;-71
2022/12/05 08:30:04;;;;;;;1999.90;999.90;;;6.00;99.90;;;;;;5016423;28;20128;-71
2022/12/05 08:32:29;;;;;;;1999.90;999.90;;;6.00;99.90;;;;;;5009038;28;20041;-71
2022/12/05 08:34:55;;;;;;;1999.90;999.90;;;6.00;99.90;;;;;;5012282;28;20893;-71
2022/12/05 08:37:20;;;;;;;1999.90;999.90;;;6.00;99.90;;;;;;5009274;28;20044;-71
2022/12/05 08:39:47;;;;;;;1999.90;999.90;;;5.90;99.90;;;;;;5009304;28;20034;-71
2022/12/05 08:42:12;;;;;;;1999.90;999.90;;;6.00;99.90;;;;;;5024778;28;20029;-71
2022/12/05 08:44:38;;;;;;;1999.90;999.90;;;6.00;99.90;;;;;;5026486;28;20481;-71
2022/12/05 08:47:04;;;;;;;1999.90;999.90;;;5.90;99.90;;;;;;4992319;28;20087;-71
2022/12/05 08:49:29;;;;;;;1999.90;999.90;;;5.90;99.90;;;;;;5009352;28;20087;-71
2022/12/05 08:51:55;;;;;;;1999.90;999.90;;;6.00;99.90;;;;;;5013257;28;20511;-71
2022/12/05 08:54:20;;;;;;;1999.90;999.90;;;5.90;99.90;;;;;;5007719;28;20046;-70
2022/12/05 08:56:49;;;;;;;1999.90;999.90;;;5.90;99.90;;;;;;4992461;28;20055;-71
2022/12/05 08:59:15;;;;;;;1999.90;999.90;;;5.90;99.90;;;;;;5031918;28;20075;-71
2022/12/05 09:01:41;;;;;;;1999.90;999.90;;;5.90;99.90;;;;;;5012553;28;20048;-71
2022/12/05 09:04:07;;;;;;;1999.90;999.90;;;5.90;99.90;;;;;;5022204;28;20584;-71
2022/12/05 09:06:34;;;;;;;1999.90;999.90;;;5.90;99.90;;;;;;5010265;28;20096;-71
2022/12/05 09:09:03;;;;;;;1999.90;999.90;;;5.90;99.90;;;;;;5010344;28;20183;-71
2022/12/05 09:11:32;;;;;;;1999.90;999.90;;;5.80;99.90;;;;;;5010505;28;20033;-71
2022/12/05 09:13:59;;;;;;;1999.90;999.90;;;5.90;99.90;;;;;;5028680;28;20053;-71
2022/12/05 09:16:28;;;;;;;1999.90;999.90;;;5.90;99.90;;;;;;5028285;28;20057;-71
2022/12/05 09:18:54;;;;;;;1999.90;999.90;;;5.90;99.90;;;;;;5015373;28;20437;-71
2022/12/05 09:21:23;;;;;;;1999.90;999.90;;;5.80;99.90;;;;;;5012626;28;20397;-71
2022/12/05 09:23:50;;;;;;;1999.90;999.90;;;5.80;99.90;;;;;;5009091;28;20045;-71
2022/12/05 09:26:19;;;;;;;1999.90;999.90;;;5.80;99.90;;;;;;5007877;28;20052;-71
2022/12/05 09:28:46;;;;;;;1999.90;999.90;;;5.80;99.90;;;;;;5008959;28;20524;-71
2022/12/05 09:31:17;;;;;;;1999.90;999.90;;;5.90;99.90;;;;;;5009921;28;20037;-71
2022/12/05 09:33:43;;;;;;;1999.90;999.90;;;5.80;99.90;;;;;;4996055;28;20630;-71
2022/12/05 09:36:21;;;;;;;1999.90;999.90;;;5.80;99.90;;;;;;4995817;28;20073;-71
2022/12/05 09:38:48;;;;;;;1999.90;999.90;;;5.80;99.90;;;;;;5024305;28;20049;-71
2022/12/05 09:44:49;;;;;;;1999.90;999.90;;;5.80;99.90;;;;;;5011652;28;20537;-71
2022/12/05 09:47:26;;;;;;;1999.90;999.90;;;5.80;99.90;;;;;;5012281;28;20046;-71
2022/12/05 09:50:14;;;;;;;1999.90;999.90;;;5.80;99.90;;;;;;5009693;28;20122;-71
2022/12/05 09:53:18;;;;;;;1999.90;999.90;;;5.80;99.90;;;;;;5008866;28;20128;-71
2022/12/05 09:55:51;;;;;;;1999.90;999.90;;;5.90;99.90;;;;;;5017188;28;20053;-71
2022/12/05 09:58:20;;;;;;;;;;;5.90;99.90;;;;;;5009010;28;20054;-71
2022/12/05 10:00:48;;;;;;;1999.90;999.90;;;5.90;99.90;;;;;;4993095;28;19999;-71
2022/12/05 10:03:37;;;;;;;1999.90;999.90;;;5.90;99.90;;;;;;5026328;28;20116;-71
2022/12/05 10:06:38;;;;;;;1999.90;999.90;;;5.90;99.90;;;;;;4991104;28;20480;-71
2022/12/05 10:09:13;;;;;;;1999.90;999.90;;;5.90;99.90;;;;;;5004071;28;20042;-71
2022/12/05 10:12:09;;;;;;;1999.90;999.90;;;5.90;99.90;;;;;;5012756;28;20044;-71
2022/12/05 10:14:53;;;;;;;1999.90;999.90;;;5.90;99.90;;;;;;4999655;28;20060;-71
2022/12/05 10:17:27;;;;;;;1999.90;999.90;;;5.90;99.90;;;;;;5013023;28;20571;-71
2022/12/05 10:19:56;;;;;;;1999.90;999.90;;;5.90;99.90;;;;;;5008278;28;20829;-71
2022/12/05 10:22:28;;;;;;;1999.90;999.90;;;5.90;99.90;;;;;;5012718;28;20046;-71
2022/12/05 10:25:00;;;;;;;1999.90;999.90;;;5.90;99.90;;;;;;4989416;28;20382;-71
2022/12/05 10:27:46;;;;;;;1999.90;999.90;;;5.90;99.90;;;;;;5001296;28;20045;-71
2022/12/05 10:30:16;;;;;;;1999.90;999.90;;;5.80;99.90;;;;;;4990786;28;20045;-71
2022/12/05 10:32:42;;;;;;;1999.90;999.90;;;5.80;99.90;;;;;;5025177;28;20034;-71
2022/12/05 10:35:20;;;;;;;1999.90;999.90;;;5.80;99.90;;;;;;5005583;28;20560;-71
2022/12/05 10:37:49;;;;;;;1999.90;999.90;;;5.90;99.90;;;;;;5009415;28;20405;-71
2022/12/05 10:40:15;;;;;;;1999.90;999.90;;;5.80;99.90;;;;;;5000170;28;20087;-71
2022/12/05 10:42:42;;;;;;;1999.90;999.90;;;5.90;99.90;;;;;;4997890;28;20504;-71
2022/12/05 10:45:21;;;;;;;1999.90;999.90;;;5.80;99.90;;;;;;5009790;28;20049;-71
2022/12/05 10:47:47;;;;;;;1999.90;999.90;;;5.80;99.90;;;;;;5007174;28;20048;-72
2022/12/05 10:50:30;;;;;;;1999.90;999.90;;;5.80;99.90;;;;;;5024816;28;20493;-71
2022/12/05 10:52:59;;;;;;;1999.90;999.90;;;5.80;99.90;;;;;;5025777;28;20052;-71
2022/12/05 10:55:36;;;;;;;1999.90;999.90;;;5.80;99.90;;;;;;4990913;28;20056;-70
2022/12/05 10:58:12;;;;;;;1999.90;999.90;;;5.80;99.90;;;;;;5010798;28;20598;-70
2022/12/05 11:00:45;;;;;;;1999.90;999.90;;;5.80;99.90;;;;;;5008621;28;20037;-70
2022/12/05 11:03:32;;;;;;;1999.90;999.90;;;5.80;99.90;;;;;;5006287;28;20045;-71
2022/12/05 11:06:21;;;;;;;1999.90;999.90;;;5.80;99.90;;;;;;5006744;28;20120;-70
2022/12/05 11:08:55;;;;;;;1999.90;999.90;;;5.80;99.90;;;;;;5005654;28;20060;-71
2022/12/05 11:11:27;;;;;;;1999.90;999.90;;;5.80;99.90;;;;;;5010568;28;20056;-71
2022/12/05 11:14:23;;;;;;;1999.90;999.90;;;5.80;99.90;;;;;;5011627;28;20049;-71
2022/12/05 11:17:21;;;;;;;1999.90;999.90;;;5.80;99.90;;;;;;5006009;28;20044;-71
2022/12/05 11:19:47;;;;;;;1999.90;999.90;;;5.80;99.90;;;;;;4996330;28;20076;-71
2022/12/05 11:22:16;;;;;;;1999.90;999.90;;;5.70;99.90;;;;;;5010034;28;20135;-71
2022/12/05 11:24:41;;;;;;;1999.90;999.90;;;5.70;99.90;;;;;;5011469;28;20520;-71
2022/12/05 11:27:16;;;;;;;1999.90;999.90;;;5.80;99.90;;;;;;5010482;28;20049;-71
2022/12/05 11:29:52;;;;;;;1999.90;999.90;;;5.80;99.90;;;;;;5009057;28;20057;-71
2022/12/05 11:32:27;;;;;;;1999.90;999.90;;;5.80;99.90;;;;;;4993745;28;20045;-71
2022/12/05 11:34:55;;;;;;;1999.90;999.90;;;5.70;99.90;;;;;;5010326;28;20100;-71
2022/12/05 11:37:30;;;;;;;1999.90;999.90;;;5.80;99.90;;;;;;5003728;28;20029;-71
2022/12/05 11:39:56;;;;;;;1999.90;999.90;;;5.70;99.90;;;;;;5009598;28;20053;-71
2022/12/05 11:42:31;;;;;;;1999.90;999.90;;;5.80;99.90;;;;;;4997480;28;20167;-71
2022/12/05 11:45:11;;;;;;;1999.90;999.90;;;5.80;99.90;;;;;;5007704;28;20555;-71
2022/12/05 11:47:43;;;;;;;1999.90;999.90;;;5.80;99.90;;;;;;4989303;28;20042;-70
2022/12/05 11:50:23;;;;;;;1999.90;999.90;;;5.80;99.90;;;;;;4988696;28;20076;-70
2022/12/05 11:53:16;;;;;;;1999.90;999.90;;;5.80;99.90;;;;;;5008127;28;20293;-71
2022/12/05 11:55:48;;;;;;;;;;;5.80;99.90;;;;;;4991565;28;20783;-71
2022/12/05 11:58:20;;;;;;;1999.90;999.90;;;5.80;99.90;;;;;;5006390;28;19979;-71
2022/12/05 12:01:06;;;;;;;1999.90;999.90;;;5.80;99.90;;;;;;4998998;28;20038;-70
2022/12/05 12:03:47;;;;;;;1999.90;999.90;;;5.80;99.90;;;;;;5019441;28;20064;-71
2022/12/05 12:06:15;;;;;;;1999.90;999.90;;;5.80;99.90;;;;;;5011956;28;20042;-71
2022/12/05 12:09:00;;;;;;;1999.90;999.90;;;5.80;99.90;;;;;;5020658;28;20052;-71
2022/12/05 12:11:48;;;;;;;1999.90;999.90;;;5.70;99.90;;;;;;5003549;28;20827;-71
2022/12/05 12:14:17;;;;;;;1999.90;999.90;;;5.80;99.90;;;;;;5005155;28;20159;-71
2022/12/05 12:16:53;;;;;;;1999.90;999.90;;;5.70;99.90;;;;;;5009776;28;20363;-71
2022/12/05 12:19:34;;;;;;;1999.90;999.90;;;5.80;99.90;;;;;;5011331;28;20399;-71
2022/12/05 12:21:59;;;;;;;1999.90;999.90;;;5.80;99.90;;;;;;5006827;28;20037;-71
2022/12/05 12:24:31;;;;;;;1999.90;999.90;;;5.70;99.90;;;;;;5005825;28;20044;-71
2022/12/05 12:26:57;;;;;;;1999.90;999.90;;;5.70;99.90;;;;;;5007019;28;20053;-71
2022/12/05 12:29:50;;;;;;;1999.90;999.90;;;5.70;99.90;;;;;;5005911;28;20037;-71
2022/12/05 12:32:28;;;;;;;;;;;5.70;99.90;;;;;;5011796;28;20041;-71
2022/12/05 12:35:20;;;;;;;1999.90;999.90;;;5.70;99.90;;;;;;4994133;28;19925;-70
2022/12/05 12:37:52;;;;;;;1999.90;999.90;;;5.70;99.90;;;;;;5025387;28;20124;-71
2022/12/05 12:40:22;;;;;;;1999.90;999.90;;;5.70;99.90;;;;;;4993863;28;20045;-71